sensor_id;sensor_type;location;lat;lon;timestamp;P1;durP1;ratioP1;P2;durP2;ratioP2
51465;SDS011;37542;50.164;9.086;2022-08-03T00:02:12;3.05;;;2.25;;
51465;SDS011;37542;50.164;9.086;2022-08-03T00:05:53;2.90;;;2.10;;
51465;SDS011;37542;50.164;9.086;2022-08-03T00:09:34;3.85;;;2.20;;
51465;SDS011;37542;50.164;9.086;2022-08-03T00:13:14;3.10;;;2.50;;
51465;SDS011;37542;50.164;9.086;2022-08-03T00:16:55;5.97;;;2.40;;
51465;SDS011;37542;50.164;9.086;2022-08-03T00:20:37;3.22;;;2.38;;
51465;SDS011;37542;50.164;9.086;2022-08-03T00:24:17;3.10;;;2.05;;
51465;SDS011;37542;50.164;9.086;2022-08-03T00:27:59;4.03;;;2.35;;
51465;SDS011;37542;50.164;9.086;2022-08-03T00:31:40;3.95;;;1.98;;
51465;SDS011;37542;50.164;9.086;2022-08-03T00:35:21;2.15;;;1.80;;
51465;SDS011;37542;50.164;9.086;2022-08-03T00:39:02;2.08;;;1.88;;
51465;SDS011;37542;50.164;9.086;2022-08-03T00:42:47;2.22;;;1.75;;
51465;SDS011;37542;50.164;9.086;2022-08-03T00:46:34;1.95;;;1.60;;
51465;SDS011;37542;50.164;9.086;2022-08-03T00:50:15;2.90;;;2.00;;
51465;SDS011;37542;50.164;9.086;2022-08-03T00:53:57;2.00;;;1.80;;
51465;SDS011;37542;50.164;9.086;2022-08-03T00:57:38;2.80;;;2.15;;
51465;SDS011;37542;50.164;9.086;2022-08-03T01:01:19;2.45;;;1.98;;
51465;SDS011;37542;50.164;9.086;2022-08-03T01:04:59;4.65;;;2.60;;
51465;SDS011;37542;50.164;9.086;2022-08-03T01:16:49;2.25;;;1.83;;
51465;SDS011;37542;50.164;9.086;2022-08-03T01:20:43;2.15;;;1.90;;
51465;SDS011;37542;50.164;9.086;2022-08-03T01:32:58;2.42;;;2.00;;
51465;SDS011;37542;50.164;9.086;2022-08-03T01:36:50;3.55;;;2.10;;
51465;SDS011;37542;50.164;9.086;2022-08-03T01:40:35;2.10;;;1.90;;
51465;SDS011;37542;50.164;9.086;2022-08-03T01:48:03;1.92;;;1.63;;
51465;SDS011;37542;50.164;9.086;2022-08-03T01:51:46;2.85;;;1.83;;
51465;SDS011;37542;50.164;9.086;2022-08-03T01:55:28;2.50;;;2.00;;
51465;SDS011;37542;50.164;9.086;2022-08-03T01:59:13;3.58;;;2.10;;
51465;SDS011;37542;50.164;9.086;2022-08-03T02:02:59;3.78;;;2.17;;
51465;SDS011;37542;50.164;9.086;2022-08-03T02:06:44;2.53;;;1.98;;
51465;SDS011;37542;50.164;9.086;2022-08-03T02:10:27;2.85;;;2.10;;
51465;SDS011;37542;50.164;9.086;2022-08-03T02:14:11;2.17;;;1.95;;
51465;SDS011;37542;50.164;9.086;2022-08-03T02:17:54;3.25;;;2.03;;
51465;SDS011;37542;50.164;9.086;2022-08-03T02:21:37;2.78;;;2.17;;
51465;SDS011;37542;50.164;9.086;2022-08-03T02:25:20;3.25;;;2.08;;
51465;SDS011;37542;50.164;9.086;2022-08-03T02:29:02;2.50;;;2.08;;
51465;SDS011;37542;50.164;9.086;2022-08-03T02:32:54;2.25;;;1.95;;
51465;SDS011;37542;50.164;9.086;2022-08-03T02:36:37;3.00;;;2.25;;
51465;SDS011;37542;50.164;9.086;2022-08-03T02:40:20;3.85;;;2.15;;
51465;SDS011;37542;50.164;9.086;2022-08-03T02:44:06;3.28;;;2.30;;
51465;SDS011;37542;50.164;9.086;2022-08-03T02:47:49;2.50;;;2.10;;
51465;SDS011;37542;50.164;9.086;2022-08-03T02:51:37;2.60;;;2.30;;
51465;SDS011;37542;50.164;9.086;2022-08-03T02:55:20;4.15;;;2.00;;
51465;SDS011;37542;50.164;9.086;2022-08-03T02:59:02;2.20;;;1.90;;
51465;SDS011;37542;50.164;9.086;2022-08-03T03:02:46;2.58;;;1.95;;
51465;SDS011;37542;50.164;9.086;2022-08-03T03:06:28;2.90;;;2.30;;
51465;SDS011;37542;50.164;9.086;2022-08-03T03:10:09;2.80;;;2.22;;
51465;SDS011;37542;50.164;9.086;2022-08-03T03:13:51;2.65;;;2.30;;
51465;SDS011;37542;50.164;9.086;2022-08-03T03:17:34;5.20;;;2.13;;
51465;SDS011;37542;50.164;9.086;2022-08-03T03:21:18;3.25;;;2.40;;
51465;SDS011;37542;50.164;9.086;2022-08-03T03:25:01;2.75;;;1.95;;
51465;SDS011;37542;50.164;9.086;2022-08-03T03:28:42;2.80;;;2.20;;
51465;SDS011;37542;50.164;9.086;2022-08-03T03:32:25;4.57;;;2.28;;
51465;SDS011;37542;50.164;9.086;2022-08-03T03:36:07;4.97;;;2.40;;
51465;SDS011;37542;50.164;9.086;2022-08-03T03:39:51;2.60;;;2.20;;
51465;SDS011;37542;50.164;9.086;2022-08-03T03:43:33;2.92;;;2.03;;
51465;SDS011;37542;50.164;9.086;2022-08-03T03:47:14;2.40;;;2.17;;
51465;SDS011;37542;50.164;9.086;2022-08-03T03:50:56;4.25;;;2.20;;
51465;SDS011;37542;50.164;9.086;2022-08-03T03:54:41;3.28;;;2.05;;
51465;SDS011;37542;50.164;9.086;2022-08-03T03:58:24;3.13;;;2.28;;
51465;SDS011;37542;50.164;9.086;2022-08-03T04:02:08;2.90;;;1.95;;
51465;SDS011;37542;50.164;9.086;2022-08-03T04:05:51;3.25;;;2.40;;
51465;SDS011;37542;50.164;9.086;2022-08-03T04:09:50;3.10;;;2.22;;
51465;SDS011;37542;50.164;9.086;2022-08-03T04:14:03;2.60;;;2.13;;
51465;SDS011;37542;50.164;9.086;2022-08-03T04:17:50;2.80;;;2.30;;
51465;SDS011;37542;50.164;9.086;2022-08-03T04:21:37;6.00;;;2.40;;
51465;SDS011;37542;50.164;9.086;2022-08-03T04:25:23;3.35;;;2.30;;
51465;SDS011;37542;50.164;9.086;2022-08-03T04:29:11;2.90;;;2.60;;
51465;SDS011;37542;50.164;9.086;2022-08-03T04:32:56;3.70;;;2.53;;
51465;SDS011;37542;50.164;9.086;2022-08-03T04:36:43;3.90;;;2.70;;
51465;SDS011;37542;50.164;9.086;2022-08-03T04:40:30;3.28;;;2.33;;
51465;SDS011;37542;50.164;9.086;2022-08-03T04:44:14;2.85;;;2.28;;
51465;SDS011;37542;50.164;9.086;2022-08-03T04:47:56;2.88;;;2.20;;
51465;SDS011;37542;50.164;9.086;2022-08-03T04:51:38;2.85;;;2.47;;
51465;SDS011;37542;50.164;9.086;2022-08-03T04:55:29;3.45;;;2.47;;
51465;SDS011;37542;50.164;9.086;2022-08-03T04:59:12;2.70;;;2.10;;
51465;SDS011;37542;50.164;9.086;2022-08-03T05:02:53;3.38;;;2.67;;
51465;SDS011;37542;50.164;9.086;2022-08-03T05:06:34;3.45;;;2.70;;
51465;SDS011;37542;50.164;9.086;2022-08-03T05:10:15;5.07;;;2.28;;
51465;SDS011;37542;50.164;9.086;2022-08-03T05:13:57;4.72;;;2.60;;
51465;SDS011;37542;50.164;9.086;2022-08-03T05:17:37;2.50;;;2.10;;
51465;SDS011;37542;50.164;9.086;2022-08-03T05:21:19;3.78;;;2.40;;
51465;SDS011;37542;50.164;9.086;2022-08-03T05:25:00;3.13;;;2.50;;
51465;SDS011;37542;50.164;9.086;2022-08-03T05:28:52;3.42;;;2.55;;
51465;SDS011;37542;50.164;9.086;2022-08-03T05:32:33;3.35;;;2.05;;
51465;SDS011;37542;50.164;9.086;2022-08-03T05:36:14;3.30;;;2.50;;
51465;SDS011;37542;50.164;9.086;2022-08-03T05:39:54;3.33;;;2.47;;
51465;SDS011;37542;50.164;9.086;2022-08-03T05:43:53;2.92;;;2.22;;
51465;SDS011;37542;50.164;9.086;2022-08-03T05:48:17;2.42;;;2.00;;
51465;SDS011;37542;50.164;9.086;2022-08-03T05:56:32;2.70;;;2.22;;
51465;SDS011;37542;50.164;9.086;2022-08-03T06:05:16;3.20;;;2.40;;
51465;SDS011;37542;50.164;9.086;2022-08-03T06:14:03;4.55;;;2.35;;
51465;SDS011;37542;50.164;9.086;2022-08-03T06:33:06;2.47;;;2.15;;
51465;SDS011;37542;50.164;9.086;2022-08-03T06:42:02;2.70;;;2.17;;
51465;SDS011;37542;50.164;9.086;2022-08-03T06:56:01;2.80;;;2.22;;
51465;SDS011;37542;50.164;9.086;2022-08-03T07:00:29;4.00;;;2.20;;
51465;SDS011;37542;50.164;9.086;2022-08-03T07:04:50;8.10;;;2.20;;
51465;SDS011;37542;50.164;9.086;2022-08-03T07:08:31;2.30;;;1.90;;
51465;SDS011;37542;50.164;9.086;2022-08-03T07:12:21;3.38;;;2.30;;
51465;SDS011;37542;50.164;9.086;2022-08-03T07:20:25;4.10;;;2.00;;
51465;SDS011;37542;50.164;9.086;2022-08-03T07:28:11;3.55;;;1.90;;
51465;SDS011;37542;50.164;9.086;2022-08-03T07:32:01;3.58;;;1.85;;
51465;SDS011;37542;50.164;9.086;2022-08-03T07:36:01;3.22;;;1.80;;
51465;SDS011;37542;50.164;9.086;2022-08-03T07:40:40;3.53;;;1.90;;
51465;SDS011;37542;50.164;9.086;2022-08-03T07:45:11;2.20;;;1.90;;
51465;SDS011;37542;50.164;9.086;2022-08-03T07:53:26;5.32;;;1.90;;
51465;SDS011;37542;50.164;9.086;2022-08-03T07:57:19;5.50;;;1.77;;
51465;SDS011;37542;50.164;9.086;2022-08-03T08:01:23;3.67;;;1.80;;
51465;SDS011;37542;50.164;9.086;2022-08-03T08:05:40;2.20;;;1.90;;
51465;SDS011;37542;50.164;9.086;2022-08-03T08:09:21;2.17;;;1.70;;
51465;SDS011;37542;50.164;9.086;2022-08-03T08:17:59;5.93;;;1.80;;
51465;SDS011;37542;50.164;9.086;2022-08-03T08:22:07;2.42;;;1.90;;
51465;SDS011;37542;50.164;9.086;2022-08-03T08:26:27;1.95;;;1.73;;
51465;SDS011;37542;50.164;9.086;2022-08-03T08:30:58;3.50;;;1.95;;
51465;SDS011;37542;50.164;9.086;2022-08-03T08:34:46;3.55;;;1.70;;
51465;SDS011;37542;50.164;9.086;2022-08-03T08:38:36;2.30;;;1.80;;
51465;SDS011;37542;50.164;9.086;2022-08-03T08:42:43;4.63;;;2.40;;
51465;SDS011;37542;50.164;9.086;2022-08-03T08:47:00;2.15;;;1.90;;
51465;SDS011;37542;50.164;9.086;2022-08-03T08:50:55;2.15;;;1.75;;
51465;SDS011;37542;50.164;9.086;2022-08-03T08:54:46;2.72;;;1.98;;
51465;SDS011;37542;50.164;9.086;2022-08-03T08:58:53;3.53;;;2.00;;
51465;SDS011;37542;50.164;9.086;2022-08-03T09:02:43;3.00;;;2.15;;
51465;SDS011;37542;50.164;9.086;2022-08-03T09:06:27;2.03;;;1.83;;
51465;SDS011;37542;50.164;9.086;2022-08-03T09:10:34;3.00;;;2.20;;
51465;SDS011;37542;50.164;9.086;2022-08-03T09:15:02;2.25;;;2.00;;
51465;SDS011;37542;50.164;9.086;2022-08-03T09:19:25;3.20;;;2.10;;
51465;SDS011;37542;50.164;9.086;2022-08-03T09:23:42;3.47;;;1.85;;
51465;SDS011;37542;50.164;9.086;2022-08-03T09:27:44;2.28;;;1.88;;
51465;SDS011;37542;50.164;9.086;2022-08-03T09:32:17;3.17;;;1.90;;
51465;SDS011;37542;50.164;9.086;2022-08-03T09:36:49;2.03;;;1.73;;
51465;SDS011;37542;50.164;9.086;2022-08-03T09:40:56;1.77;;;1.67;;
51465;SDS011;37542;50.164;9.086;2022-08-03T09:44:49;4.67;;;1.93;;
51465;SDS011;37542;50.164;9.086;2022-08-03T09:53:00;2.15;;;1.55;;
51465;SDS011;37542;50.164;9.086;2022-08-03T09:56:44;4.35;;;1.60;;
51465;SDS011;37542;50.164;9.086;2022-08-03T10:00:42;1.60;;;1.50;;
51465;SDS011;37542;50.164;9.086;2022-08-03T10:04:50;2.85;;;1.63;;
51465;SDS011;37542;50.164;9.086;2022-08-03T10:08:34;2.67;;;1.80;;
51465;SDS011;37542;50.164;9.086;2022-08-03T10:12:18;3.13;;;1.80;;
51465;SDS011;37542;50.164;9.086;2022-08-03T10:16:02;4.55;;;1.60;;
51465;SDS011;37542;50.164;9.086;2022-08-03T10:25:19;2.75;;;1.60;;
51465;SDS011;37542;50.164;9.086;2022-08-03T10:29:11;2.13;;;1.50;;
51465;SDS011;37542;50.164;9.086;2022-08-03T10:48:01;1.70;;;1.50;;
51465;SDS011;37542;50.164;9.086;2022-08-03T10:51:44;2.28;;;1.73;;
51465;SDS011;37542;50.164;9.086;2022-08-03T10:55:35;2.80;;;1.80;;
51465;SDS011;37542;50.164;9.086;2022-08-03T11:03:29;2.35;;;1.80;;
51465;SDS011;37542;50.164;9.086;2022-08-03T11:11:02;1.60;;;1.40;;
51465;SDS011;37542;50.164;9.086;2022-08-03T11:15:00;1.50;;;1.40;;
51465;SDS011;37542;50.164;9.086;2022-08-03T11:18:57;2.13;;;1.70;;
51465;SDS011;37542;50.164;9.086;2022-08-03T11:22:47;1.73;;;1.63;;
51465;SDS011;37542;50.164;9.086;2022-08-03T11:26:30;1.98;;;1.50;;
51465;SDS011;37542;50.164;9.086;2022-08-03T11:34:14;1.83;;;1.60;;
51465;SDS011;37542;50.164;9.086;2022-08-03T11:41:39;1.50;;;1.40;;
51465;SDS011;37542;50.164;9.086;2022-08-03T11:45:20;1.70;;;1.60;;
51465;SDS011;37542;50.164;9.086;2022-08-03T11:49:04;1.80;;;1.50;;
51465;SDS011;37542;50.164;9.086;2022-08-03T11:52:46;2.38;;;1.60;;
51465;SDS011;37542;50.164;9.086;2022-08-03T11:56:42;1.80;;;1.60;;
51465;SDS011;37542;50.164;9.086;2022-08-03T12:00:33;1.60;;;1.50;;
51465;SDS011;37542;50.164;9.086;2022-08-03T12:04:16;6.85;;;1.70;;
51465;SDS011;37542;50.164;9.086;2022-08-03T12:08:03;3.58;;;1.73;;
51465;SDS011;37542;50.164;9.086;2022-08-03T12:11:48;1.70;;;1.60;;
51465;SDS011;37542;50.164;9.086;2022-08-03T12:15:32;5.80;;;1.67;;
51465;SDS011;37542;50.164;9.086;2022-08-03T12:19:14;1.75;;;1.48;;
51465;SDS011;37542;50.164;9.086;2022-08-03T12:23:00;3.13;;;1.60;;
51465;SDS011;37542;50.164;9.086;2022-08-03T12:26:47;2.35;;;1.67;;
51465;SDS011;37542;50.164;9.086;2022-08-03T12:35:05;1.63;;;1.52;;
51465;SDS011;37542;50.164;9.086;2022-08-03T12:43:48;2.17;;;1.67;;
51465;SDS011;37542;50.164;9.086;2022-08-03T12:47:47;1.85;;;1.65;;
51465;SDS011;37542;50.164;9.086;2022-08-03T12:51:58;4.00;;;1.75;;
51465;SDS011;37542;50.164;9.086;2022-08-03T13:13:56;2.78;;;1.63;;
51465;SDS011;37542;50.164;9.086;2022-08-03T13:21:49;2.08;;;1.58;;
51465;SDS011;37542;50.164;9.086;2022-08-03T13:25:56;2.83;;;1.60;;
51465;SDS011;37542;50.164;9.086;2022-08-03T13:35:22;3.90;;;1.60;;
51465;SDS011;37542;50.164;9.086;2022-08-03T13:39:03;1.55;;;1.45;;
51465;SDS011;37542;50.164;9.086;2022-08-03T13:42:47;1.52;;;1.42;;
51465;SDS011;37542;50.164;9.086;2022-08-03T13:46:28;1.40;;;1.30;;
51465;SDS011;37542;50.164;9.086;2022-08-03T13:50:09;1.90;;;1.70;;
51465;SDS011;37542;50.164;9.086;2022-08-03T13:53:50;1.90;;;1.50;;
51465;SDS011;37542;50.164;9.086;2022-08-03T13:57:31;1.92;;;1.70;;
51465;SDS011;37542;50.164;9.086;2022-08-03T14:01:12;2.03;;;1.52;;
51465;SDS011;37542;50.164;9.086;2022-08-03T14:04:53;1.80;;;1.70;;
51465;SDS011;37542;50.164;9.086;2022-08-03T14:08:34;3.15;;;1.80;;
51465;SDS011;37542;50.164;9.086;2022-08-03T14:12:14;3.38;;;1.75;;
51465;SDS011;37542;50.164;9.086;2022-08-03T14:15:55;1.80;;;1.70;;
51465;SDS011;37542;50.164;9.086;2022-08-03T14:19:36;1.50;;;1.40;;
51465;SDS011;37542;50.164;9.086;2022-08-03T14:23:17;1.83;;;1.50;;
51465;SDS011;37542;50.164;9.086;2022-08-03T14:26:58;2.00;;;1.70;;
51465;SDS011;37542;50.164;9.086;2022-08-03T14:30:38;3.03;;;1.52;;
51465;SDS011;37542;50.164;9.086;2022-08-03T14:34:19;2.92;;;1.58;;
51465;SDS011;37542;50.164;9.086;2022-08-03T14:38:00;2.38;;;1.70;;
51465;SDS011;37542;50.164;9.086;2022-08-03T14:41:40;2.05;;;1.80;;
51465;SDS011;37542;50.164;9.086;2022-08-03T14:45:21;3.08;;;1.70;;
51465;SDS011;37542;50.164;9.086;2022-08-03T14:49:02;1.63;;;1.52;;
51465;SDS011;37542;50.164;9.086;2022-08-03T14:52:44;1.70;;;1.60;;
51465;SDS011;37542;50.164;9.086;2022-08-03T14:56:25;1.60;;;1.50;;
51465;SDS011;37542;50.164;9.086;2022-08-03T15:00:06;3.47;;;1.60;;
51465;SDS011;37542;50.164;9.086;2022-08-03T15:03:47;1.50;;;1.40;;
51465;SDS011;37542;50.164;9.086;2022-08-03T15:07:28;2.10;;;1.70;;
51465;SDS011;37542;50.164;9.086;2022-08-03T15:11:09;2.55;;;1.70;;
51465;SDS011;37542;50.164;9.086;2022-08-03T15:14:50;1.65;;;1.40;;
51465;SDS011;37542;50.164;9.086;2022-08-03T15:18:30;3.28;;;1.50;;
51465;SDS011;37542;50.164;9.086;2022-08-03T15:22:11;1.70;;;1.60;;
51465;SDS011;37542;50.164;9.086;2022-08-03T15:25:54;2.90;;;1.70;;
51465;SDS011;37542;50.164;9.086;2022-08-03T15:29:35;1.90;;;1.67;;
51465;SDS011;37542;50.164;9.086;2022-08-03T15:33:15;1.85;;;1.58;;
51465;SDS011;37542;50.164;9.086;2022-08-03T15:36:57;1.90;;;1.52;;
51465;SDS011;37542;50.164;9.086;2022-08-03T15:40:37;5.80;;;1.75;;
51465;SDS011;37542;50.164;9.086;2022-08-03T15:44:19;1.77;;;1.65;;
51465;SDS011;37542;50.164;9.086;2022-08-03T15:47:59;1.77;;;1.58;;
51465;SDS011;37542;50.164;9.086;2022-08-03T15:51:40;2.13;;;1.70;;
51465;SDS011;37542;50.164;9.086;2022-08-03T15:55:21;2.78;;;1.60;;
51465;SDS011;37542;50.164;9.086;2022-08-03T15:59:02;3.13;;;1.70;;
51465;SDS011;37542;50.164;9.086;2022-08-03T16:02:43;2.10;;;1.90;;
51465;SDS011;37542;50.164;9.086;2022-08-03T16:06:24;3.83;;;1.60;;
51465;SDS011;37542;50.164;9.086;2022-08-03T16:10:04;2.15;;;1.70;;
51465;SDS011;37542;50.164;9.086;2022-08-03T16:13:46;8.13;;;1.63;;
51465;SDS011;37542;50.164;9.086;2022-08-03T16:17:27;1.60;;;1.50;;
51465;SDS011;37542;50.164;9.086;2022-08-03T16:21:08;1.90;;;1.58;;
51465;SDS011;37542;50.164;9.086;2022-08-03T16:24:50;3.97;;;1.63;;
51465;SDS011;37542;50.164;9.086;2022-08-03T16:28:34;1.67;;;1.58;;
51465;SDS011;37542;50.164;9.086;2022-08-03T16:32:17;2.08;;;1.77;;
51465;SDS011;37542;50.164;9.086;2022-08-03T16:35:58;2.10;;;1.70;;
51465;SDS011;37542;50.164;9.086;2022-08-03T16:39:39;2.78;;;1.63;;
51465;SDS011;37542;50.164;9.086;2022-08-03T16:43:20;3.60;;;1.80;;
51465;SDS011;37542;50.164;9.086;2022-08-03T16:47:01;1.70;;;1.50;;
51465;SDS011;37542;50.164;9.086;2022-08-03T16:50:43;2.08;;;1.70;;
51465;SDS011;37542;50.164;9.086;2022-08-03T16:54:24;2.55;;;2.00;;
51465;SDS011;37542;50.164;9.086;2022-08-03T16:58:05;1.92;;;1.73;;
51465;SDS011;37542;50.164;9.086;2022-08-03T17:01:47;3.35;;;1.67;;
51465;SDS011;37542;50.164;9.086;2022-08-03T17:05:28;3.10;;;1.92;;
51465;SDS011;37542;50.164;9.086;2022-08-03T17:09:14;3.60;;;1.70;;
51465;SDS011;37542;50.164;9.086;2022-08-03T17:12:59;2.58;;;1.95;;
51465;SDS011;37542;50.164;9.086;2022-08-03T17:16:43;2.03;;;1.80;;
51465;SDS011;37542;50.164;9.086;2022-08-03T17:20:26;3.67;;;1.70;;
51465;SDS011;37542;50.164;9.086;2022-08-03T17:27:59;1.70;;;1.58;;
51465;SDS011;37542;50.164;9.086;2022-08-03T17:31:41;2.10;;;1.65;;
51465;SDS011;37542;50.164;9.086;2022-08-03T17:35:23;3.60;;;1.50;;
51465;SDS011;37542;50.164;9.086;2022-08-03T17:39:05;2.05;;;1.80;;
51465;SDS011;37542;50.164;9.086;2022-08-03T17:42:46;1.77;;;1.60;;
51465;SDS011;37542;50.164;9.086;2022-08-03T17:46:27;1.60;;;1.50;;
51465;SDS011;37542;50.164;9.086;2022-08-03T17:50:08;2.80;;;1.50;;
51465;SDS011;37542;50.164;9.086;2022-08-03T17:57:58;2.88;;;1.90;;
51465;SDS011;37542;50.164;9.086;2022-08-03T18:06:51;2.05;;;1.85;;
51465;SDS011;37542;50.164;9.086;2022-08-03T18:10:36;2.80;;;1.77;;
51465;SDS011;37542;50.164;9.086;2022-08-03T18:18:31;3.22;;;1.80;;
51465;SDS011;37542;50.164;9.086;2022-08-03T18:22:18;1.63;;;1.42;;
51465;SDS011;37542;50.164;9.086;2022-08-03T18:26:00;2.30;;;1.90;;
51465;SDS011;37542;50.164;9.086;2022-08-03T18:29:44;2.13;;;1.67;;
51465;SDS011;37542;50.164;9.086;2022-08-03T18:33:26;3.50;;;2.15;;
51465;SDS011;37542;50.164;9.086;2022-08-03T18:37:08;3.45;;;2.08;;
51465;SDS011;37542;50.164;9.086;2022-08-03T18:40:53;3.25;;;1.60;;
51465;SDS011;37542;50.164;9.086;2022-08-03T18:44:34;1.98;;;1.70;;
51465;SDS011;37542;50.164;9.086;2022-08-03T18:48:17;2.13;;;1.63;;
51465;SDS011;37542;50.164;9.086;2022-08-03T18:52:25;2.72;;;1.73;;
51465;SDS011;37542;50.164;9.086;2022-08-03T19:00:07;1.90;;;1.70;;
51465;SDS011;37542;50.164;9.086;2022-08-03T19:03:56;2.38;;;1.90;;
51465;SDS011;37542;50.164;9.086;2022-08-03T19:07:56;2.80;;;2.05;;
51465;SDS011;37542;50.164;9.086;2022-08-03T19:11:45;3.63;;;2.13;;
51465;SDS011;37542;50.164;9.086;2022-08-03T19:15:32;3.55;;;2.00;;
51465;SDS011;37542;50.164;9.086;2022-08-03T19:19:16;2.03;;;1.80;;
51465;SDS011;37542;50.164;9.086;2022-08-03T19:23:00;3.58;;;2.10;;
51465;SDS011;37542;50.164;9.086;2022-08-03T19:26:41;2.30;;;1.80;;
51465;SDS011;37542;50.164;9.086;2022-08-03T19:30:21;3.13;;;1.83;;
51465;SDS011;37542;50.164;9.086;2022-08-03T19:34:20;2.33;;;1.67;;
51465;SDS011;37542;50.164;9.086;2022-08-03T19:38:03;4.43;;;1.85;;
51465;SDS011;37542;50.164;9.086;2022-08-03T19:41:44;2.78;;;2.10;;
51465;SDS011;37542;50.164;9.086;2022-08-03T19:45:31;2.33;;;1.98;;
51465;SDS011;37542;50.164;9.086;2022-08-03T19:49:15;2.60;;;1.92;;
51465;SDS011;37542;50.164;9.086;2022-08-03T19:53:01;2.78;;;2.10;;
51465;SDS011;37542;50.164;9.086;2022-08-03T19:56:50;3.88;;;2.30;;
51465;SDS011;37542;50.164;9.086;2022-08-03T20:00:35;3.90;;;2.33;;
51465;SDS011;37542;50.164;9.086;2022-08-03T20:04:19;2.60;;;1.63;;
51465;SDS011;37542;50.164;9.086;2022-08-03T20:08:00;2.03;;;1.80;;
51465;SDS011;37542;50.164;9.086;2022-08-03T20:11:45;2.10;;;1.80;;
51465;SDS011;37542;50.164;9.086;2022-08-03T20:15:26;4.57;;;1.90;;
51465;SDS011;37542;50.164;9.086;2022-08-03T20:19:07;2.20;;;1.98;;
51465;SDS011;37542;50.164;9.086;2022-08-03T20:22:48;2.92;;;2.25;;
51465;SDS011;37542;50.164;9.086;2022-08-03T20:26:39;2.40;;;2.10;;
51465;SDS011;37542;50.164;9.086;2022-08-03T20:31:26;4.38;;;2.97;;
51465;SDS011;37542;50.164;9.086;2022-08-03T20:35:19;13.90;;;2.80;;
51465;SDS011;37542;50.164;9.086;2022-08-03T20:39:03;5.18;;;2.92;;
51465;SDS011;37542;50.164;9.086;2022-08-03T20:42:44;6.68;;;3.03;;
51465;SDS011;37542;50.164;9.086;2022-08-03T20:46:25;4.57;;;2.78;;
51465;SDS011;37542;50.164;9.086;2022-08-03T20:50:06;4.55;;;2.80;;
51465;SDS011;37542;50.164;9.086;2022-08-03T20:53:48;5.57;;;2.80;;
51465;SDS011;37542;50.164;9.086;2022-08-03T20:57:34;3.90;;;2.47;;
51465;SDS011;37542;50.164;9.086;2022-08-03T21:01:15;3.20;;;2.30;;
51465;SDS011;37542;50.164;9.086;2022-08-03T21:04:56;3.40;;;2.42;;
51465;SDS011;37542;50.164;9.086;2022-08-03T21:08:42;3.13;;;2.17;;
51465;SDS011;37542;50.164;9.086;2022-08-03T21:16:17;3.25;;;2.42;;
51465;SDS011;37542;50.164;9.086;2022-08-03T21:20:06;4.60;;;2.40;;
51465;SDS011;37542;50.164;9.086;2022-08-03T21:23:51;2.90;;;2.40;;
51465;SDS011;37542;50.164;9.086;2022-08-03T21:27:34;3.90;;;2.35;;
51465;SDS011;37542;50.164;9.086;2022-08-03T21:31:16;2.70;;;2.25;;
51465;SDS011;37542;50.164;9.086;2022-08-03T21:35:00;2.20;;;2.00;;
51465;SDS011;37542;50.164;9.086;2022-08-03T21:38:41;2.40;;;2.20;;
51465;SDS011;37542;50.164;9.086;2022-08-03T21:42:22;2.53;;;2.08;;
51465;SDS011;37542;50.164;9.086;2022-08-03T21:46:04;2.90;;;2.40;;
51465;SDS011;37542;50.164;9.086;2022-08-03T21:49:47;2.10;;;1.90;;
51465;SDS011;37542;50.164;9.086;2022-08-03T21:53:31;2.72;;;2.10;;
51465;SDS011;37542;50.164;9.086;2022-08-03T21:57:17;2.25;;;1.98;;
51465;SDS011;37542;50.164;9.086;2022-08-03T22:01:02;2.72;;;2.22;;
51465;SDS011;37542;50.164;9.086;2022-08-03T22:04:43;3.00;;;2.28;;
51465;SDS011;37542;50.164;9.086;2022-08-03T22:08:25;2.55;;;2.15;;
51465;SDS011;37542;50.164;9.086;2022-08-03T22:12:06;2.67;;;2.30;;
51465;SDS011;37542;50.164;9.086;2022-08-03T22:15:47;4.85;;;2.00;;
51465;SDS011;37542;50.164;9.086;2022-08-03T22:19:28;2.38;;;2.00;;
51465;SDS011;37542;50.164;9.086;2022-08-03T22:23:09;2.83;;;2.50;;
51465;SDS011;37542;50.164;9.086;2022-08-03T22:26:50;2.67;;;2.10;;
51465;SDS011;37542;50.164;9.086;2022-08-03T22:30:50;3.35;;;2.00;;
51465;SDS011;37542;50.164;9.086;2022-08-03T22:34:31;2.45;;;1.65;;
51465;SDS011;37542;50.164;9.086;2022-08-03T22:38:13;5.82;;;2.30;;
51465;SDS011;37542;50.164;9.086;2022-08-03T22:41:56;4.22;;;2.25;;
51465;SDS011;37542;50.164;9.086;2022-08-03T22:45:38;2.40;;;2.15;;
51465;SDS011;37542;50.164;9.086;2022-08-03T22:49:25;2.55;;;2.20;;
51465;SDS011;37542;50.164;9.086;2022-08-03T22:53:12;2.95;;;2.40;;
51465;SDS011;37542;50.164;9.086;2022-08-03T22:56:59;3.80;;;2.60;;
51465;SDS011;37542;50.164;9.086;2022-08-03T23:00:42;2.40;;;2.20;;
51465;SDS011;37542;50.164;9.086;2022-08-03T23:04:30;2.67;;;2.45;;
51465;SDS011;37542;50.164;9.086;2022-08-03T23:08:13;4.93;;;2.45;;
51465;SDS011;37542;50.164;9.086;2022-08-03T23:12:00;2.90;;;2.25;;
51465;SDS011;37542;50.164;9.086;2022-08-03T23:15:42;3.10;;;2.30;;
51465;SDS011;37542;50.164;9.086;2022-08-03T23:19:35;3.08;;;2.28;;
51465;SDS011;37542;50.164;9.086;2022-08-03T23:23:20;2.38;;;2.05;;
51465;SDS011;37542;50.164;9.086;2022-08-03T23:27:02;3.03;;;2.03;;
51465;SDS011;37542;50.164;9.086;2022-08-03T23:30:45;3.70;;;2.63;;
51465;SDS011;37542;50.164;9.086;2022-08-03T23:34:30;3.60;;;2.50;;
51465;SDS011;37542;50.164;9.086;2022-08-03T23:38:33;2.63;;;2.28;;
51465;SDS011;37542;50.164;9.086;2022-08-03T23:42:16;3.70;;;2.13;;
51465;SDS011;37542;50.164;9.086;2022-08-03T23:46:00;2.72;;;2.42;;
51465;SDS011;37542;50.164;9.086;2022-08-03T23:49:43;3.10;;;2.40;;
51465;SDS011;37542;50.164;9.086;2022-08-03T23:53:25;3.67;;;2.40;;
